createdAt,value
2023-12-30T00:00:17.853Z,100076.25
2023-12-30T00:02:49.937Z,100078.94
2023-12-30T00:05:17.915Z,100073.28
2023-12-30T00:07:45.585Z,100075.97
2023-12-30T00:10:12.923Z,100077.31
2023-12-30T00:12:40.289Z,100074.97
2023-12-30T00:15:08.364Z,100072.03
2023-12-30T00:17:35.533Z,100085.16
2023-12-30T00:20:02.828Z,100082.69
2023-12-30T00:22:30.034Z,100096.41
2023-12-30T00:24:57.237Z,100092.59
2023-12-30T00:27:24.356Z,100079.81
2023-12-30T00:29:51.630Z,100091.31
2023-12-30T00:32:18.755Z,100094.56
2023-12-30T00:34:45.886Z,100102.59
2023-12-30T00:37:20.426Z,100109.31
2023-12-30T00:39:48.554Z,100108.53
2023-12-30T00:42:15.734Z,100109.91
2023-12-30T00:44:43.226Z,100097.31
2023-12-30T00:47:10.416Z,100083.91
2023-12-30T00:49:37.576Z,100084.00
2023-12-30T00:52:05.035Z,100097.38
2023-12-30T00:54:38.207Z,100096.88
2023-12-30T00:57:11.197Z,100093.03
2023-12-30T00:59:38.346Z,100098.41
2023-12-30T01:02:05.538Z,100108.25
2023-12-30T01:04:32.781Z,100104.47
2023-12-30T01:06:59.944Z,100097.97
2023-12-30T01:09:27.181Z,100103.25
2023-12-30T01:11:54.414Z,100106.25
2023-12-30T01:14:21.531Z,100101.66
2023-12-30T01:16:48.796Z,100090.81
2023-12-30T01:19:15.922Z,100093.13
2023-12-30T01:21:43.099Z,100094.72
2023-12-30T01:24:11.359Z,100091.72
2023-12-30T01:26:39.829Z,100083.78
2023-12-30T01:29:06.923Z,100076.25
2023-12-30T01:31:35.626Z,100085.56
2023-12-30T01:34:02.925Z,100095.53
2023-12-30T01:36:30.077Z,100100.38
2023-12-30T01:38:57.239Z,100092.91
2023-12-30T01:41:24.393Z,100094.56
2023-12-30T01:43:51.544Z,100103.69
2023-12-30T01:46:19.175Z,100098.41
2023-12-30T01:48:46.633Z,100099.00
2023-12-30T01:51:24.450Z,100102.16
2023-12-30T01:53:54.215Z,100101.59
2023-12-30T01:56:23.690Z,100088.56
2023-12-30T01:58:52.920Z,100100.22
2023-12-30T02:01:22.752Z,100086.53
2023-12-30T02:03:50.185Z,100102.03
2023-12-30T02:06:17.345Z,100105.19
2023-12-30T02:08:44.811Z,100116.97
2023-12-30T02:11:13.118Z,100116.97
2023-12-30T02:13:44.003Z,100120.41
2023-12-30T02:16:12.325Z,100107.25
2023-12-30T02:18:40.137Z,100137.44
2023-12-30T02:21:07.881Z,100148.88
2023-12-30T02:23:35.497Z,100142.97
2023-12-30T02:26:02.749Z,100146.16
2023-12-30T02:28:30.015Z,100160.78
2023-12-30T02:30:57.394Z,100170.69
2023-12-30T02:33:24.817Z,100167.00
2023-12-30T02:35:53.265Z,100171.59
2023-12-30T02:38:20.500Z,100166.66
2023-12-30T02:40:47.877Z,100176.78
2023-12-30T02:43:15.105Z,100178.16
2023-12-30T02:45:42.488Z,100181.28
2023-12-30T02:48:09.716Z,100194.69
2023-12-30T02:50:37.017Z,100195.16
2023-12-30T02:53:04.459Z,100204.88
2023-12-30T02:55:31.664Z,100208.19
2023-12-30T02:57:58.851Z,100204.09
2023-12-30T03:00:26.012Z,100224.84
2023-12-30T03:02:53.136Z,100226.94
2023-12-30T03:05:20.411Z,100228.03
2023-12-30T03:07:47.683Z,100229.09
2023-12-30T03:10:15.074Z,100237.13
2023-12-30T03:12:42.399Z,100232.03
2023-12-30T03:15:10.169Z,100244.09
2023-12-30T03:17:37.618Z,100237.38
2023-12-30T03:20:06.047Z,100228.88
2023-12-30T03:22:33.918Z,100238.72
2023-12-30T03:25:01.389Z,100243.00
2023-12-30T03:27:28.633Z,100240.41
2023-12-30T03:29:55.773Z,100241.53
2023-12-30T03:32:23.010Z,100250.66
2023-12-30T03:34:50.309Z,100246.72
2023-12-30T03:37:17.508Z,100246.97
2023-12-30T03:39:44.641Z,100259.84
2023-12-30T03:42:12.402Z,100248.09
2023-12-30T03:44:39.634Z,100258.03
2023-12-30T03:47:06.741Z,100259.31
2023-12-30T03:49:34.273Z,100264.72
2023-12-30T03:52:01.509Z,100270.31
2023-12-30T03:54:28.555Z,100266.31
2023-12-30T03:56:55.974Z,100275.97
2023-12-30T03:59:23.062Z,100257.81
2023-12-30T04:01:50.618Z,100276.00
2023-12-30T04:04:17.844Z,100268.47
2023-12-30T04:06:45.030Z,100274.09
2023-12-30T04:09:12.313Z,100285.63
2023-12-30T04:11:39.412Z,100279.19
2023-12-30T04:14:06.642Z,100275.97
2023-12-30T04:16:33.741Z,100287.16
2023-12-30T04:19:01.001Z,100281.72
2023-12-30T04:21:28.180Z,100283.31
2023-12-30T04:23:55.236Z,100295.06
2023-12-30T04:26:22.359Z,100303.34
2023-12-30T04:28:49.473Z,100291.84
2023-12-30T04:31:16.778Z,100300.34
2023-12-30T04:33:44.110Z,100294.72
2023-12-30T04:36:11.337Z,100289.66
2023-12-30T04:38:38.424Z,100292.31
2023-12-30T04:41:05.825Z,100295.25
2023-12-30T04:43:33.048Z,100310.47
2023-12-30T04:46:00.428Z,100292.56
2023-12-30T04:48:27.671Z,100298.16
2023-12-30T04:50:54.787Z,100306.72
2023-12-30T04:53:22.327Z,100300.06
2023-12-30T04:55:49.381Z,100309.44
2023-12-30T04:58:17.418Z,100300.09
2023-12-30T05:00:44.567Z,100295.00
2023-12-30T05:03:11.725Z,100300.88
2023-12-30T05:05:39.027Z,100313.03
2023-12-30T05:08:07.763Z,100303.09
2023-12-30T05:10:35.595Z,100305.22
2023-12-30T05:13:03.203Z,100302.25
2023-12-30T05:15:30.740Z,100304.13
2023-12-30T05:17:58.066Z,100323.06
2023-12-30T05:20:25.424Z,100326.75
2023-12-30T05:22:52.556Z,100317.31
2023-12-30T05:25:19.885Z,100329.13
2023-12-30T05:27:47.118Z,100331.25
2023-12-30T05:30:14.372Z,100331.75
2023-12-30T05:32:41.537Z,100331.44
2023-12-30T05:35:09.034Z,100333.38
2023-12-30T05:37:36.614Z,100336.25
2023-12-30T05:40:07.406Z,100337.88
2023-12-30T05:42:34.950Z,100348.59
2023-12-30T05:45:02.181Z,100351.47
2023-12-30T05:47:29.343Z,100359.31
2023-12-30T05:49:56.527Z,100375.66
2023-12-30T05:52:23.716Z,100364.78
2023-12-30T05:54:50.911Z,100357.50
2023-12-30T05:57:19.091Z,100383.25
2023-12-30T05:59:46.490Z,100375.81
2023-12-30T06:02:13.646Z,100383.84
2023-12-30T06:04:42.030Z,100386.59
2023-12-30T06:07:09.710Z,100388.25
2023-12-30T06:09:36.868Z,100378.84
2023-12-30T06:12:04.120Z,100388.78
2023-12-30T06:14:31.327Z,100366.06
2023-12-30T06:16:58.462Z,100382.19
2023-12-30T06:19:25.689Z,100386.75
2023-12-30T06:21:52.934Z,100402.00
2023-12-30T06:24:20.119Z,100397.97
2023-12-30T06:26:47.142Z,100411.34
2023-12-30T06:29:14.808Z,100406.00
2023-12-30T06:31:43.247Z,100412.41
2023-12-30T06:34:13.501Z,100402.25
2023-12-30T06:36:44.595Z,100413.44
2023-12-30T06:39:17.272Z,100411.03
2023-12-30T06:41:44.425Z,100419.28
2023-12-30T06:44:11.797Z,100417.13
2023-12-30T06:46:38.989Z,100428.63
2023-12-30T06:49:06.225Z,100422.19
2023-12-30T06:51:33.307Z,100429.94
2023-12-30T06:54:00.475Z,100443.13
2023-12-30T06:56:27.620Z,100450.84
2023-12-30T06:58:54.785Z,100444.16
2023-12-30T07:01:22.138Z,100440.59
2023-12-30T07:03:49.479Z,100448.38
2023-12-30T07:06:16.675Z,100452.94
2023-12-30T07:08:43.853Z,100457.81
2023-12-30T07:11:11.126Z,100464.75
2023-12-30T07:13:38.459Z,100467.66
2023-12-30T07:16:06.122Z,100473.59
2023-12-30T07:18:33.316Z,100480.22
2023-12-30T07:21:00.456Z,100481.31
2023-12-30T07:23:27.572Z,100490.16
2023-12-30T07:25:54.707Z,100503.81
2023-12-30T07:28:21.822Z,100492.78
2023-12-30T07:30:49.068Z,100505.06
2023-12-30T07:33:16.524Z,100513.69
2023-12-30T07:35:43.875Z,100501.66
2023-12-30T07:38:11.133Z,100516.03
2023-12-30T07:40:38.379Z,100524.31
2023-12-30T07:43:05.887Z,100513.25
2023-12-30T07:45:33.444Z,100527.75
2023-12-30T07:48:00.620Z,100524.28
2023-12-30T07:50:27.799Z,100536.38
2023-12-30T07:52:54.890Z,100534.94
2023-12-30T07:55:22.045Z,100542.44
2023-12-30T07:57:49.241Z,100548.06
2023-12-30T08:00:16.702Z,100552.34
2023-12-30T08:02:45.566Z,100556.91
2023-12-30T08:05:12.890Z,100567.44
2023-12-30T08:07:40.294Z,100561.19
2023-12-30T08:10:16.836Z,100569.47
2023-12-30T08:13:06.990Z,100556.53
2023-12-30T08:15:35.577Z,100575.91
2023-12-30T08:18:06.773Z,100582.91
2023-12-30T08:20:55.001Z,100573.22
2023-12-30T08:23:23.410Z,100581.75
2023-12-30T08:25:52.326Z,100574.22
2023-12-30T08:28:23.528Z,100581.19
2023-12-30T08:30:55.210Z,100584.44
2023-12-30T08:33:24.093Z,100595.16
2023-12-30T08:35:54.473Z,100605.88
2023-12-30T08:38:23.132Z,100603.66
2023-12-30T08:40:50.893Z,100599.63
2023-12-30T08:43:18.618Z,100602.06
2023-12-30T08:45:46.157Z,100604.28
2023-12-30T08:48:13.481Z,100611.84
2023-12-30T08:50:41.105Z,100610.56
2023-12-30T08:53:08.284Z,100617.69
2023-12-30T08:55:35.580Z,100619.31
2023-12-30T08:58:02.810Z,100621.19
2023-12-30T09:00:30.099Z,100617.69
2023-12-30T09:02:57.450Z,100634.25
2023-12-30T09:05:24.631Z,100629.50
2023-12-30T09:07:52.660Z,100650.88
2023-12-30T09:10:20.453Z,100658.94
2023-12-30T09:12:47.917Z,100651.16
2023-12-30T09:15:15.020Z,100656.03
2023-12-30T09:17:42.426Z,100662.19
2023-12-30T09:20:10.418Z,100661.38
2023-12-30T09:22:37.584Z,100667.25
2023-12-30T09:25:05.044Z,100685.22
2023-12-30T09:27:32.288Z,100680.13
2023-12-30T09:29:59.345Z,100678.28
2023-12-30T09:32:26.540Z,100682.03
2023-12-30T09:34:54.732Z,100693.00
2023-12-30T09:37:22.054Z,100685.31
2023-12-30T09:39:49.399Z,100700.84
2023-12-30T09:42:17.365Z,100710.72
2023-12-30T09:44:45.503Z,100709.91
2023-12-30T09:47:12.813Z,100702.41
2023-12-30T09:49:41.935Z,100725.66
2023-12-30T09:52:09.178Z,100716.75
2023-12-30T09:54:45.625Z,100717.81
2023-12-30T09:57:16.888Z,100700.94
2023-12-30T09:59:45.846Z,100724.78
2023-12-30T10:02:13.310Z,100737.09
2023-12-30T10:04:40.732Z,100726.63
2023-12-30T10:07:08.819Z,100723.94
2023-12-30T10:09:36.078Z,100733.34
2023-12-30T10:12:03.410Z,100730.75
2023-12-30T10:14:30.662Z,100748.38
2023-12-30T10:16:57.792Z,100732.63
2023-12-30T10:19:26.094Z,100735.03
2023-12-30T10:21:53.227Z,100733.44
2023-12-30T10:24:20.294Z,100742.28
2023-12-30T10:26:48.358Z,100739.00
2023-12-30T10:29:15.513Z,100751.84
2023-12-30T10:31:43.484Z,100750.47
2023-12-30T10:34:10.762Z,100740.53
2023-12-30T10:36:38.427Z,100748.00
2023-12-30T10:39:06.880Z,100747.19
2023-12-30T10:41:34.043Z,100742.91
2023-12-30T10:44:01.487Z,100741.03
2023-12-30T10:46:29.020Z,100748.81
2023-12-30T10:48:57.740Z,100742.06
2023-12-30T10:51:27.288Z,100755.47
2023-12-30T10:54:01.046Z,100748.22
2023-12-30T10:56:41.039Z,100756.22
2023-12-30T10:59:08.916Z,100751.41
2023-12-30T11:01:37.656Z,100734.84
2023-12-30T11:04:12.691Z,100765.09
2023-12-30T11:06:49.470Z,100751.34
2023-12-30T11:09:16.670Z,100762.53
2023-12-30T11:11:54.016Z,100757.41
2023-12-30T11:14:21.816Z,100753.38
2023-12-30T11:16:51.861Z,100762.44
2023-12-30T11:19:32.482Z,100778.28
2023-12-30T11:22:02.342Z,100763.50
2023-12-30T11:24:29.551Z,100773.78
2023-12-30T11:26:57.161Z,100774.88
2023-12-30T11:29:26.686Z,100763.13
2023-12-30T11:31:55.721Z,100757.75
2023-12-30T11:34:23.806Z,100773.00
2023-12-30T11:36:53.175Z,100774.88
2023-12-30T11:39:32.885Z,100771.66
2023-12-30T11:42:01.556Z,100765.44
2023-12-30T11:44:29.335Z,100771.63
2023-12-30T11:46:57.670Z,100766.16
2023-12-30T11:49:26.503Z,100756.63
2023-12-30T11:52:04.380Z,100760.06
2023-12-30T11:54:33.588Z,100761.03
2023-12-30T11:57:01.072Z,100758.50
2023-12-30T11:59:28.428Z,100775.41
2023-12-30T12:02:07.822Z,100769.09
2023-12-30T12:04:35.104Z,100771.38
2023-12-30T12:07:02.488Z,100780.72
2023-12-30T12:09:30.572Z,100772.19
2023-12-30T12:11:57.901Z,100782.44
2023-12-30T12:14:28.196Z,100781.72
2023-12-30T12:16:55.400Z,100786.63
2023-12-30T12:19:22.672Z,100786.69
2023-12-30T12:21:49.802Z,100793.03
2023-12-30T12:24:16.922Z,100788.31
2023-12-30T12:26:44.611Z,100793.19
2023-12-30T12:29:14.120Z,100801.34
2023-12-30T12:31:45.513Z,100794.38
2023-12-30T12:34:26.865Z,100804.56
2023-12-30T12:36:54.904Z,100798.44
2023-12-30T12:39:22.084Z,100799.63
2023-12-30T12:41:49.777Z,100797.28
2023-12-30T12:44:17.411Z,100806.59
2023-12-30T12:46:44.647Z,100802.91
2023-12-30T12:49:12.174Z,100817.06
2023-12-30T12:51:40.778Z,100811.78
2023-12-30T12:54:08.045Z,100815.78
2023-12-30T12:56:35.555Z,100816.16
2023-12-30T12:59:02.613Z,100819.47
2023-12-30T13:01:30.294Z,100824.84
2023-12-30T13:03:59.405Z,100821.06
2023-12-30T13:06:26.692Z,100828.13
2023-12-30T13:08:56.868Z,100828.75
2023-12-30T13:11:28.833Z,100833.31
2023-12-30T13:13:56.910Z,100829.97
2023-12-30T13:16:25.477Z,100828.22
2023-12-30T13:18:53.716Z,100828.38
2023-12-30T13:21:20.988Z,100837.53
2023-12-30T13:23:50.695Z,100825.31
2023-12-30T13:26:19.862Z,100843.59
2023-12-30T13:28:47.424Z,100834.00
2023-12-30T13:31:19.119Z,100846.16
2023-12-30T13:33:46.744Z,100836.56
2023-12-30T13:36:13.961Z,100827.94
2023-12-30T13:38:44.828Z,100832.25
2023-12-30T13:41:12.306Z,100845.69
2023-12-30T13:43:39.568Z,100833.06
2023-12-30T13:46:32.831Z,100844.06
2023-12-30T13:49:03.017Z,100837.38
2023-12-30T13:51:30.219Z,100841.47
2023-12-30T13:53:57.459Z,100839.94
2023-12-30T13:56:26.391Z,100837.28
2023-12-30T13:58:53.830Z,100832.78
2023-12-30T14:01:23.669Z,100844.00
2023-12-30T14:03:54.728Z,100846.94
2023-12-30T14:06:29.555Z,100856.13
2023-12-30T14:08:56.797Z,100853.13
2023-12-30T14:11:34.791Z,100859.31
2023-12-30T14:14:04.434Z,100865.31
2023-12-30T14:16:32.373Z,100862.09
2023-12-30T14:18:59.683Z,100862.09
2023-12-30T14:21:26.959Z,100862.63
2023-12-30T14:23:54.529Z,100869.34
2023-12-30T14:26:21.902Z,100870.97
2023-12-30T14:28:49.199Z,100874.44
2023-12-30T14:31:16.894Z,100880.09
2023-12-30T14:33:44.248Z,100878.31
2023-12-30T14:36:12.325Z,100874.84
2023-12-30T14:38:40.576Z,100872.16
2023-12-30T14:41:07.748Z,100881.03
2023-12-30T14:43:34.935Z,100893.94
2023-12-30T14:46:02.526Z,100892.63
2023-12-30T14:48:29.786Z,100891.56
2023-12-30T14:50:56.938Z,100888.06
2023-12-30T14:53:24.175Z,100899.66
2023-12-30T14:55:51.765Z,100898.38
2023-12-30T14:58:18.980Z,100908.31
2023-12-30T15:00:47.620Z,100902.44
2023-12-30T15:03:15.657Z,100905.69
2023-12-30T15:05:43.519Z,100903.78
2023-12-30T15:08:10.694Z,100901.13
2023-12-30T15:10:37.892Z,100898.72
2023-12-30T15:13:05.658Z,100897.38
2023-12-30T15:15:33.022Z,100897.66
2023-12-30T15:18:00.339Z,100896.59
2023-12-30T15:20:28.185Z,100895.22
2023-12-30T15:22:55.590Z,100896.59
2023-12-30T15:25:23.604Z,100903.03
2023-12-30T15:27:53.984Z,100897.97
2023-12-30T15:30:23.621Z,100909.50
2023-12-30T15:32:52.014Z,100904.47
2023-12-30T15:35:19.633Z,100908.50
2023-12-30T15:37:47.002Z,100899.16
2023-12-30T15:40:14.362Z,100906.44
2023-12-30T15:42:42.919Z,100906.97
2023-12-30T15:45:10.542Z,100905.41
2023-12-30T15:47:37.903Z,100911.06
2023-12-30T15:50:05.697Z,100911.31
2023-12-30T15:52:33.523Z,100900.63
2023-12-30T15:55:01.164Z,100916.19
2023-12-30T15:57:28.409Z,100909.22
2023-12-30T15:59:55.671Z,100915.13
2023-12-30T16:02:24.489Z,100910.56
2023-12-30T16:04:53.575Z,100904.69
2023-12-30T16:07:20.973Z,100906.00
2023-12-30T16:09:49.461Z,100908.72
2023-12-30T16:12:16.642Z,100912.19
2023-12-30T16:14:45.922Z,100909.22
2023-12-30T16:17:13.734Z,100904.94
2023-12-30T16:19:41.388Z,100900.41
2023-12-30T16:22:08.725Z,100898.78
2023-12-30T16:24:36.152Z,100902.28
2023-12-30T16:27:03.611Z,100908.16
2023-12-30T16:29:30.948Z,100904.94
2023-12-30T16:32:01.775Z,100901.19
2023-12-30T16:34:29.063Z,100906.28
2023-12-30T16:36:57.010Z,100912.44
2023-12-30T16:39:24.825Z,100919.94
2023-12-30T16:41:52.350Z,100916.19
2023-12-30T16:44:19.536Z,100909.47
2023-12-30T16:46:46.940Z,100913.75
2023-12-30T16:49:14.214Z,100901.41
2023-12-30T16:51:42.099Z,100904.38
2023-12-30T16:54:13.903Z,100908.63
2023-12-30T16:56:41.098Z,100900.06
2023-12-30T16:59:09.567Z,100892.56
2023-12-30T17:01:37.357Z,100900.59
2023-12-30T17:04:05.056Z,100897.09
2023-12-30T17:06:34.811Z,100904.88
2023-12-30T17:09:04.683Z,100905.13
2023-12-30T17:11:32.568Z,100900.03
2023-12-30T17:14:00.125Z,100904.88
2023-12-30T17:16:27.416Z,100904.84
2023-12-30T17:18:54.597Z,100895.75
2023-12-30T17:21:21.713Z,100897.09
2023-12-30T17:23:49.005Z,100898.97
2023-12-30T17:26:16.199Z,100904.06
2023-12-30T17:28:43.386Z,100897.91
2023-12-30T17:31:10.930Z,100890.13
2023-12-30T17:33:38.643Z,100889.88
2023-12-30T17:36:06.390Z,100893.38
2023-12-30T17:38:33.567Z,100903.28
2023-12-30T17:41:00.761Z,100900.09
2023-12-30T17:43:27.989Z,100902.22
2023-12-30T17:45:55.656Z,100901.16
2023-12-30T17:48:22.845Z,100898.75
2023-12-30T17:50:49.998Z,100898.75
2023-12-30T17:53:17.103Z,100892.34
2023-12-30T17:55:44.362Z,100896.59
2023-12-30T17:58:11.764Z,100900.38
2023-12-30T18:00:42.351Z,100894.47
2023-12-30T18:03:09.753Z,100894.22
2023-12-30T18:05:37.108Z,100890.47
2023-12-30T18:08:05.151Z,100891.53
2023-12-30T18:10:32.692Z,100895.31
2023-12-30T18:13:00.592Z,100901.72
2023-12-30T18:15:28.044Z,100889.41
2023-12-30T18:17:55.345Z,100896.88
2023-12-30T18:20:23.507Z,100895.56
2023-12-30T18:22:50.949Z,100902.00
2023-12-30T18:25:18.972Z,100891.78
2023-12-30T18:27:50.100Z,100894.75
2023-12-30T18:30:18.311Z,100896.63
2023-12-30T18:32:45.648Z,100886.72
2023-12-30T18:35:13.637Z,100900.16
2023-12-30T18:37:42.713Z,100900.91
2023-12-30T18:40:11.939Z,100903.34
2023-12-30T18:42:39.480Z,100904.94
2023-12-30T18:45:10.023Z,100904.41
2023-12-30T18:47:37.395Z,100907.38
2023-12-30T18:50:05.360Z,100903.34
2023-12-30T18:52:35.808Z,100889.94
2023-12-30T18:55:04.628Z,100891.00
2023-12-30T18:57:31.948Z,100887.00
2023-12-30T18:59:59.295Z,100874.94
2023-12-30T19:02:26.825Z,100870.38
2023-12-30T19:04:54.400Z,100871.72
2023-12-30T19:07:22.330Z,100857.25
2023-12-30T19:09:49.591Z,100841.72
2023-12-30T19:12:21.642Z,100849.22
2023-12-30T19:15:09.643Z,100841.72
2023-12-30T19:17:38.812Z,100833.69
2023-12-30T19:20:12.821Z,100837.16
2023-12-30T19:22:40.050Z,100827.53
2023-12-30T19:25:07.545Z,100833.94
2023-12-30T19:27:34.834Z,100827.53
2023-12-30T19:30:01.976Z,100823.47
2023-12-30T19:32:29.163Z,100818.94
2023-12-30T19:34:57.737Z,100809.28
2023-12-30T19:37:25.185Z,100810.63
2023-12-30T19:39:52.269Z,100803.41
2023-12-30T19:42:19.546Z,100806.34
2023-12-30T19:44:46.857Z,100803.66
2023-12-30T19:47:14.242Z,100794.78
2023-12-30T19:49:41.464Z,100792.66
2023-12-30T19:52:08.753Z,100794.25
2023-12-30T19:54:39.059Z,100790.75
2023-12-30T19:57:06.447Z,100773.34
2023-12-30T19:59:38.283Z,100787.78
2023-12-30T20:02:05.504Z,100780.28
2023-12-30T20:04:33.249Z,100765.50
2023-12-30T20:07:00.580Z,100770.88
2023-12-30T20:09:27.726Z,100756.38
2023-12-30T20:11:54.873Z,100761.19
2023-12-30T20:14:22.135Z,100755.59
2023-12-30T20:16:50.475Z,100753.69
2023-12-30T20:19:17.816Z,100747.28
2023-12-30T20:21:45.142Z,100735.19
2023-12-30T20:24:12.395Z,100730.41
2023-12-30T20:26:40.150Z,100729.03
2023-12-30T20:29:07.340Z,100730.63
2023-12-30T20:31:34.776Z,100723.63
2023-12-30T20:34:02.090Z,100716.13
2023-12-30T20:36:29.326Z,100713.97
2023-12-30T20:38:56.442Z,100698.69
2023-12-30T20:41:23.534Z,100699.50
2023-12-30T20:43:50.890Z,100700.56
2023-12-30T20:46:19.207Z,100695.78
2023-12-30T20:48:46.454Z,100688.53
2023-12-30T20:51:13.963Z,100692.28
2023-12-30T20:53:43.912Z,100688.31
2023-12-30T20:56:11.096Z,100690.97
2023-12-30T20:58:38.216Z,100690.44
2023-12-30T21:01:05.532Z,100682.97
2023-12-30T21:03:33.023Z,100685.16
2023-12-30T21:06:00.264Z,100677.38
2023-12-30T21:08:30.619Z,100668.53
2023-12-30T21:10:57.879Z,100681.69
2023-12-30T21:13:25.171Z,100675.81
2023-12-30T21:15:52.288Z,100681.41
2023-12-30T21:18:26.300Z,100668.84
2023-12-30T21:20:56.620Z,100677.97
2023-12-30T21:23:23.916Z,100664.31
2023-12-30T21:25:52.280Z,100670.50
2023-12-30T21:28:21.522Z,100654.19
2023-12-30T21:30:50.122Z,100655.25
2023-12-30T21:33:17.429Z,100657.91
2023-12-30T21:35:44.959Z,100645.88
2023-12-30T21:38:12.511Z,100648.84
2023-12-30T21:40:39.860Z,100633.31
2023-12-30T21:43:07.452Z,100641.59
2023-12-30T21:45:34.955Z,100644.56
2023-12-30T21:48:05.562Z,100643.00
2023-12-30T21:50:33.475Z,100643.53
2023-12-30T21:53:01.000Z,100635.25
2023-12-30T21:55:28.464Z,100641.16
2023-12-30T21:57:57.668Z,100642.22
2023-12-30T22:00:25.101Z,100638.22
2023-12-30T22:02:52.495Z,100624.88
2023-12-30T22:05:22.144Z,100633.97
2023-12-30T22:07:50.013Z,100628.34
2023-12-30T22:10:17.418Z,100628.06
2023-12-30T22:12:44.888Z,100620.31
2023-12-30T22:15:12.096Z,100615.25
2023-12-30T22:17:39.392Z,100616.31
2023-12-30T22:20:07.333Z,100616.56
2023-12-30T22:22:34.708Z,100615.25
2023-12-30T22:25:05.197Z,100613.06
2023-12-30T22:27:32.819Z,100616.28
2023-12-30T22:30:02.310Z,100607.47
2023-12-30T22:32:31.432Z,100608.00
2023-12-30T22:35:04.413Z,100608.28
2023-12-30T22:37:31.739Z,100611.25
2023-12-30T22:39:59.787Z,100605.91
2023-12-30T22:42:28.393Z,100629.19
2023-12-30T22:44:55.576Z,100619.56
2023-12-30T22:47:22.936Z,100619.81
2023-12-30T22:49:50.882Z,100614.19
2023-12-30T22:52:18.312Z,100605.91
2023-12-30T22:54:45.534Z,100608.31
2023-12-30T22:57:13.021Z,100598.69
2023-12-30T22:59:40.389Z,100597.13
2023-12-30T23:02:08.538Z,100588.56
2023-12-30T23:04:35.939Z,100578.41
2023-12-30T23:07:03.098Z,100580.00
2023-12-30T23:09:33.909Z,100604.84
2023-12-30T23:12:01.782Z,100587.50
2023-12-30T23:14:29.043Z,100571.94
2023-12-30T23:16:56.200Z,100570.63
2023-12-30T23:19:23.861Z,100591.19
2023-12-30T23:21:51.031Z,100581.56
2023-12-30T23:24:18.525Z,100590.66
2023-12-30T23:26:45.879Z,100583.16
2023-12-30T23:29:13.103Z,100579.69
2023-12-30T23:31:42.490Z,100573.03
2023-12-30T23:34:09.857Z,100578.09
2023-12-30T23:36:37.678Z,100574.63
2023-12-30T23:39:05.622Z,100572.75
2023-12-30T23:41:32.981Z,100565.03
2023-12-30T23:44:00.096Z,100567.41
2023-12-30T23:46:27.288Z,100554.56
2023-12-30T23:48:55.726Z,100549.22
2023-12-30T23:51:23.346Z,100549.50
2023-12-30T23:53:50.624Z,100553.50
2023-12-30T23:56:17.956Z,100550.53
2023-12-30T23:58:45.282Z,100546.25
